Time;durP1;ratioP1;P1;durP2;ratioP2;P2;SDS_P1;SDS_P2;PMS_P1;PMS_P2;Temp;Humidity;BMP_temperature;BMP_pressure;BME280_temperature;BME280_humidity;BME280_pressure;Samples;Min_cycle;Max_cycle;Signal;HPM_P1;HPM_P2
2023/02/18 00:01:18;;;;;;;1.60;0.70;;;18.20;50.40;;;;;;5090754;28;20607;-86
2023/02/18 00:03:45;;;;;;;1.77;0.63;;;18.10;50.30;;;;;;5090829;28;20157;-86
2023/02/18 00:06:17;;;;;;;0.82;0.75;;;18.20;50.40;;;;;;5090540;28;20169;-86
2023/02/18 00:08:48;;;;;;;0.80;0.60;;;18.20;50.40;;;;;;5090160;28;20165;-86
2023/02/18 00:11:14;;;;;;;0.50;0.50;;;18.20;50.30;;;;;;5091008;28;20187;-86
2023/02/18 00:13:40;;;;;;;0.70;0.70;;;18.20;50.40;;;;;;5091086;28;20215;-86
2023/02/18 00:16:11;;;;;;;0.60;0.60;;;18.10;50.40;;;;;;5107666;28;20172;-86
2023/02/18 00:18:37;;;;;;;0.57;0.57;;;18.10;50.40;;;;;;5108017;28;20161;-86
2023/02/18 00:21:04;;;;;;;1.13;0.70;;;18.20;50.50;;;;;;5090530;28;20629;-86
2023/02/18 00:23:30;;;;;;;0.80;0.60;;;18.20;50.50;;;;;;5107407;28;20153;-86
2023/02/18 00:26:05;;;;;;;1.00;0.60;;;18.20;50.50;;;;;;5107019;28;20655;-87
2023/02/18 00:28:31;;;;;;;2.45;0.90;;;18.10;50.40;;;;;;5090754;28;20619;-86
2023/02/18 00:30:59;;;;;;;0.70;0.70;;;18.10;50.40;;;;;;5090395;28;20172;-86
2023/02/18 00:33:28;;;;;;;0.93;0.80;;;18.10;50.40;;;;;;5105184;28;20159;-86
2023/02/18 00:36:01;;;;;;;0.88;0.63;;;18.10;50.50;;;;;;5107548;28;20275;-86
2023/02/18 00:38:26;;;;;;;0.73;0.70;;;18.10;50.60;;;;;;5090015;28;20165;-86
2023/02/18 00:40:53;;;;;;;1.20;0.80;;;18.10;50.50;;;;;;5090260;28;20192;-86
2023/02/18 00:43:21;;;;;;;0.82;0.70;;;18.10;50.60;;;;;;5090199;28;20224;-86
2023/02/18 00:45:47;;;;;;;0.95;0.82;;;18.10;50.60;;;;;;5106239;28;20164;-86
2023/02/18 00:48:12;;;;;;;0.60;0.60;;;18.10;50.50;;;;;;5088882;28;20195;-85
2023/02/18 00:50:38;;;;;;;1.65;0.80;;;18.20;50.50;;;;;;5123101;28;20175;-86
2023/02/18 00:53:11;;;;;;;0.63;0.50;;;18.20;50.50;;;;;;5106276;28;20323;-85
2023/02/18 00:55:46;;;;;;;0.65;0.60;;;18.10;50.50;;;;;;5089486;28;20187;-85
2023/02/18 00:58:15;;;;;;;0.80;0.68;;;18.10;50.50;;;;;;5090318;28;20160;-85
2023/02/18 01:00:42;;;;;;;0.50;0.50;;;18.10;50.50;;;;;;5089281;28;20221;-85
2023/02/18 01:03:09;;;;;;;1.63;0.60;;;18.10;50.60;;;;;;5088720;28;20216;-85
2023/02/18 01:05:35;;;;;;;0.75;0.60;;;18.10;50.60;;;;;;5105831;28;20611;-86
2023/02/18 01:08:01;;;;;;;0.63;0.60;;;18.10;50.70;;;;;;5089234;28;20223;-86
2023/02/18 01:10:28;;;;;;;0.70;0.70;;;18.10;50.60;;;;;;5105912;28;20615;-86
2023/02/18 01:12:54;;;;;;;0.65;0.60;;;18.10;50.60;;;;;;5105588;28;20183;-86
2023/02/18 01:15:20;;;;;;;0.60;0.52;;;18.10;50.60;;;;;;5089342;28;20169;-86
2023/02/18 01:17:46;;;;;;;0.65;0.57;;;18.10;50.50;;;;;;5089872;28;20164;-86
2023/02/18 01:20:13;;;;;;;1.35;0.80;;;18.10;50.60;;;;;;5089361;28;20188;-86
2023/02/18 01:22:39;;;;;;;0.65;0.63;;;18.10;50.70;;;;;;5089515;28;20191;-86
2023/02/18 01:25:07;;;;;;;1.08;0.88;;;18.10;50.70;;;;;;5123469;28;20192;-85
2023/02/18 01:27:36;;;;;;;0.60;0.60;;;18.10;50.70;;;;;;5088861;28;20619;-86
2023/02/18 01:30:08;;;;;;;0.75;0.65;;;18.10;50.70;;;;;;5088683;28;20632;-86
2023/02/18 01:32:40;;;;;;;0.82;0.60;;;18.10;50.70;;;;;;5088713;28;20638;-86
2023/02/18 01:35:06;;;;;;;1.98;0.60;;;18.00;50.90;;;;;;5105585;28;20164;-86
2023/02/18 01:37:32;;;;;;;0.82;0.68;;;18.00;50.90;;;;;;5087905;28;20164;-86
2023/02/18 01:39:59;;;;;;;0.70;0.70;;;18.10;50.80;;;;;;5105364;28;20208;-86
2023/02/18 01:42:28;;;;;;;0.50;0.50;;;18.10;50.90;;;;;;5104999;28;20161;-86
2023/02/18 01:44:53;;;;;;;0.65;0.60;;;18.00;51.00;;;;;;5088607;28;20173;-86
2023/02/18 01:47:19;;;;;;;0.75;0.75;;;18.00;50.90;;;;;;5088903;28;20157;-87
2023/02/18 01:49:51;;;;;;;0.57;0.57;;;18.00;50.90;;;;;;5104505;28;20157;-86
2023/02/18 01:52:19;;;;;;;1.10;0.73;;;18.10;50.90;;;;;;5105607;28;20156;-86
2023/02/18 01:54:51;;;;;;;0.73;0.50;;;18.00;51.00;;;;;;5089306;28;20164;-86
2023/02/18 01:57:20;;;;;;;0.70;0.50;;;18.00;50.80;;;;;;5106283;28;20153;-86
2023/02/18 01:59:49;;;;;;;0.77;0.70;;;18.00;50.90;;;;;;5087915;28;20225;-86
2023/02/18 02:02:19;;;;;;;1.25;0.60;;;18.00;50.90;;;;;;5088781;28;20168;-86
2023/02/18 02:04:45;;;;;;;0.73;0.55;;;18.00;51.00;;;;;;5088712;28;20187;-86
2023/02/18 02:07:13;;;;;;;0.70;0.60;;;18.00;51.00;;;;;;5105291;28;20607;-87
2023/02/18 02:09:42;;;;;;;0.63;0.60;;;18.00;51.10;;;;;;5088275;28;20165;-86
2023/02/18 02:12:20;;;;;;;1.00;0.80;;;18.00;51.00;;;;;;5087645;28;20181;-86
2023/02/18 02:15:20;;;;;;;0.65;0.65;;;17.90;50.90;;;;;;5106765;28;20197;-86
2023/02/18 02:18:20;;;;;;;0.93;0.50;;;17.90;51.00;;;;;;5088180;28;20176;-86
2023/02/18 02:21:06;;;;;;;1.08;0.70;;;17.90;51.00;;;;;;5104664;28;20237;-86
2023/02/18 02:23:58;;;;;;;1.30;0.70;;;18.00;51.40;;;;;;5104584;28;20255;-85
2023/02/18 02:26:58;;;;;;;0.88;0.65;;;18.00;51.20;;;;;;5088015;28;20635;-86
2023/02/18 02:29:54;;;;;;;0.88;0.63;;;17.90;51.00;;;;;;5088153;28;20163;-86
2023/02/18 02:33:00;;;;;;;0.90;0.70;;;17.90;51.10;;;;;;5104648;28;20168;-86
2023/02/18 02:35:30;;;;;;;1.17;0.60;;;18.00;51.00;;;;;;5093350;28;20160;-86
2023/02/18 02:38:01;;;;;;;0.75;0.60;;;18.00;51.10;;;;;;5105232;28;20157;-86
2023/02/18 02:40:37;;;;;;;0.70;0.70;;;17.90;51.00;;;;;;5104843;28;20188;-86
2023/02/18 02:43:27;;;;;;;0.80;0.60;;;17.90;51.00;;;;;;5121309;28;20176;-86
2023/02/18 02:46:05;;;;;;;0.70;0.60;;;17.90;51.10;;;;;;5088463;28;20329;-86
2023/02/18 02:48:50;;;;;;;1.05;0.80;;;17.90;50.90;;;;;;5087746;28;20259;-86
2023/02/18 02:51:40;;;;;;;0.70;0.50;;;17.90;51.10;;;;;;5105769;28;20682;-86
2023/02/18 02:54:18;;;;;;;0.80;0.68;;;17.90;51.00;;;;;;5105833;28;20172;-86
2023/02/18 02:56:44;;;;;;;0.65;0.65;;;17.90;51.10;;;;;;5107650;28;20606;-86
2023/02/18 02:59:13;;;;;;;1.08;0.50;;;17.90;51.20;;;;;;5108714;28;20236;-86
2023/02/18 03:02:10;;;;;;;2.88;0.90;;;17.90;51.20;;;;;;5092193;28;20161;-86
2023/02/18 03:05:02;;;;;;;0.57;0.57;;;17.90;51.20;;;;;;5108347;28;20169;-86
2023/02/18 03:07:37;;;;;;;0.50;0.50;;;17.90;51.20;;;;;;5108560;28;20173;-86
2023/02/18 03:10:39;;;;;;;0.98;0.70;;;17.90;51.20;;;;;;5091183;28;20168;-85
2023/02/18 03:13:16;;;;;;;0.88;0.73;;;17.90;52.00;;;;;;5109613;28;20186;-85
2023/02/18 03:15:49;;;;;;;0.98;0.60;;;17.90;51.20;;;;;;5125625;28;20262;-86
2023/02/18 03:18:45;;;;;;;0.77;0.70;;;17.90;51.20;;;;;;5091209;28;20519;-86
2023/02/18 03:21:22;;;;;;;1.13;0.70;;;17.90;51.20;;;;;;5108508;28;20203;-85
2023/02/18 03:23:52;;;;;;;0.95;0.60;;;17.90;51.30;;;;;;5092095;28;20251;-86
2023/02/18 03:26:19;;;;;;;0.90;0.65;;;17.80;51.10;;;;;;5109160;28;20172;-85
2023/02/18 03:28:46;;;;;;;0.73;0.52;;;17.90;51.20;;;;;;5090990;28;20173;-86
2023/02/18 03:31:14;;;;;;;0.80;0.52;;;17.90;51.40;;;;;;5070663;28;20181;-86
2023/02/18 03:33:47;;;;;;;0.68;0.63;;;17.90;51.00;;;;;;5103670;28;20284;-86
2023/02/18 03:36:13;;;;;;;0.55;0.50;;;17.90;51.30;;;;;;5087270;28;20154;-85
2023/02/18 03:38:53;;;;;;;1.58;0.63;;;17.80;51.10;;;;;;5070076;28;20220;-85
2023/02/18 03:41:19;;;;;;;0.82;0.40;;;17.90;51.50;;;;;;5070304;28;20179;-86
2023/02/18 03:44:00;;;;;;;0.80;0.60;;;17.90;51.30;;;;;;5070066;28;20256;-86
2023/02/18 03:46:27;;;;;;;0.60;0.60;;;17.80;51.20;;;;;;5086944;28;20188;-86
2023/02/18 03:48:53;;;;;;;1.00;0.70;;;17.80;51.20;;;;;;5086359;28;20153;-86
2023/02/18 03:51:19;;;;;;;0.50;0.50;;;17.80;51.30;;;;;;5087330;28;20233;-86
2023/02/18 03:53:47;;;;;;;0.77;0.60;;;17.80;51.50;;;;;;5104105;28;20169;-86
2023/02/18 03:56:14;;;;;;;0.65;0.52;;;17.80;51.40;;;;;;5086351;28;20602;-86
2023/02/18 03:58:40;;;;;;;0.82;0.60;;;17.80;51.30;;;;;;5070106;28;20173;-86
2023/02/18 04:01:05;;;;;;;0.68;0.60;;;17.80;51.30;;;;;;5085524;28;20270;-86
2023/02/18 04:03:31;;;;;;;1.30;0.57;;;17.80;51.30;;;;;;5102815;28;20192;-86
2023/02/18 04:05:57;;;;;;;1.10;0.68;;;17.80;51.40;;;;;;5086659;28;20164;-86
2023/02/18 04:08:23;;;;;;;0.55;0.50;;;17.80;51.40;;;;;;5085801;28;20177;-87
2023/02/18 04:10:48;;;;;;;1.05;0.70;;;17.80;51.60;;;;;;5070043;28;20173;-86
2023/02/18 04:13:18;;;;;;;0.55;0.55;;;17.80;52.10;;;;;;5069590;28;20161;-86
2023/02/18 04:15:44;;;;;;;0.70;0.50;;;17.90;51.50;;;;;;5073681;28;20196;-86
2023/02/18 04:18:11;;;;;;;0.90;0.60;;;17.80;51.30;;;;;;5103753;28;20638;-86
2023/02/18 04:20:37;;;;;;;0.63;0.52;;;17.90;51.40;;;;;;5087066;28;20189;-86
2023/02/18 04:23:04;;;;;;;1.00;0.50;;;17.90;51.40;;;;;;5069758;28;20161;-86
2023/02/18 04:25:30;;;;;;;0.63;0.63;;;17.80;51.30;;;;;;5103386;28;20184;-85
2023/02/18 04:27:56;;;;;;;0.77;0.60;;;17.80;51.30;;;;;;5069453;28;20158;-86
2023/02/18 04:30:26;;;;;;;0.60;0.60;;;17.80;51.40;;;;;;5069578;28;20172;-86
2023/02/18 04:32:52;;;;;;;0.57;0.50;;;17.80;51.40;;;;;;5086645;28;20169;-86
2023/02/18 04:35:18;;;;;;;0.70;0.70;;;17.80;51.40;;;;;;5070224;28;20257;-86
2023/02/18 04:37:43;;;;;;;0.75;0.50;;;17.70;51.40;;;;;;5069428;28;20200;-86
2023/02/18 04:40:09;;;;;;;0.60;0.52;;;17.80;51.60;;;;;;5085997;28;20219;-86
2023/02/18 04:42:38;;;;;;;0.98;0.70;;;17.70;51.60;;;;;;5087060;28;20544;-86
2023/02/18 04:45:04;;;;;;;0.52;0.52;;;17.80;51.60;;;;;;5069023;28;20173;-86
2023/02/18 04:47:30;;;;;;;0.75;0.50;;;17.80;51.60;;;;;;5069938;28;20161;-86
2023/02/18 04:49:56;;;;;;;0.73;0.60;;;17.70;51.60;;;;;;5070483;28;20221;-86
2023/02/18 04:52:22;;;;;;;0.60;0.50;;;17.80;51.60;;;;;;5069464;28;20171;-87
2023/02/18 04:54:49;;;;;;;0.90;0.60;;;17.80;51.40;;;;;;5069723;28;20165;-86
2023/02/18 04:57:16;;;;;;;0.65;0.55;;;17.80;51.50;;;;;;5069537;28;20181;-86
2023/02/18 04:59:42;;;;;;;0.50;0.50;;;17.80;51.40;;;;;;5076322;28;20259;-86
2023/02/18 05:02:08;;;;;;;0.93;0.73;;;17.80;52.00;;;;;;5088997;28;20176;-85
2023/02/18 05:04:34;;;;;;;1.38;0.63;;;17.80;51.60;;;;;;5089179;28;20512;-86
2023/02/18 05:07:00;;;;;;;1.25;0.50;;;17.70;51.50;;;;;;5106829;28;20161;-85
2023/02/18 05:09:27;;;;;;;0.60;0.60;;;17.80;51.60;;;;;;5107493;28;20153;-86
2023/02/18 05:11:54;;;;;;;0.40;0.40;;;17.80;51.60;;;;;;5089860;28;20175;-86
2023/02/18 05:14:21;;;;;;;0.40;0.40;;;17.80;51.50;;;;;;5088448;28;20169;-86
2023/02/18 05:16:48;;;;;;;0.60;0.60;;;17.80;51.50;;;;;;5088791;28;20160;-86
2023/02/18 05:19:14;;;;;;;0.40;0.40;;;17.70;51.60;;;;;;5105331;28;20185;-86
2023/02/18 05:21:40;;;;;;;0.82;0.50;;;17.80;51.70;;;;;;5089181;28;20172;-86
2023/02/18 05:24:07;;;;;;;0.70;0.70;;;17.80;51.50;;;;;;5088616;28;20161;-86
2023/02/18 05:26:36;;;;;;;0.75;0.50;;;17.70;51.70;;;;;;5105907;28;20153;-86
2023/02/18 05:29:02;;;;;;;0.68;0.68;;;17.70;51.60;;;;;;5088848;28;20256;-87
2023/02/18 05:31:30;;;;;;;0.50;0.50;;;17.70;51.60;;;;;;5105970;28;20616;-86
2023/02/18 05:34:02;;;;;;;0.68;0.65;;;17.80;51.60;;;;;;5089757;28;20255;-86
2023/02/18 05:36:27;;;;;;;0.43;0.43;;;17.70;51.70;;;;;;5105795;28;20157;-86
2023/02/18 05:38:54;;;;;;;1.08;0.70;;;17.80;51.60;;;;;;5105574;28;20153;-86
2023/02/18 05:41:21;;;;;;;0.63;0.60;;;17.70;51.50;;;;;;5106823;28;20149;-87
2023/02/18 05:46:35;;;;;;;0.60;0.55;;;17.70;51.70;;;;;;5105805;28;20148;-86
2023/02/18 05:49:01;;;;;;;0.60;0.60;;;17.80;51.70;;;;;;5088465;28;20349;-86
2023/02/18 05:51:31;;;;;;;1.33;0.60;;;17.80;51.70;;;;;;5088154;28;20183;-86
2023/02/18 05:53:57;;;;;;;0.52;0.40;;;17.70;51.50;;;;;;5088921;28;20183;-87
2023/02/18 05:56:25;;;;;;;0.82;0.63;;;17.70;51.60;;;;;;5088133;28;20161;-86
2023/02/18 05:58:51;;;;;;;0.60;0.60;;;17.70;51.60;;;;;;5105149;28;20213;-86
2023/02/18 06:01:17;;;;;;;0.80;0.60;;;17.80;51.50;;;;;;5088567;28;20172;-86
2023/02/18 06:03:43;;;;;;;0.63;0.50;;;17.70;51.60;;;;;;5087341;28;20255;-86
2023/02/18 06:06:09;;;;;;;0.68;0.60;;;17.80;51.60;;;;;;5088401;28;20203;-86
2023/02/18 06:08:37;;;;;;;0.55;0.55;;;17.80;51.60;;;;;;5088101;28;20527;-86
2023/02/18 06:11:02;;;;;;;0.60;0.60;;;17.80;51.80;;;;;;5104719;28;20240;-86
2023/02/18 06:13:34;;;;;;;0.55;0.55;;;17.70;51.60;;;;;;5087351;28;20184;-86
2023/02/18 06:16:00;;;;;;;0.63;0.55;;;17.70;51.50;;;;;;5070927;28;20192;-86
2023/02/18 06:18:32;;;;;;;1.63;0.55;;;17.70;51.70;;;;;;5086729;28;20185;-86
2023/02/18 06:20:57;;;;;;;0.50;0.50;;;17.70;51.80;;;;;;5070740;28;20184;-86
2023/02/18 06:23:23;;;;;;;0.70;0.60;;;17.80;51.70;;;;;;5087748;28;20181;-87
2023/02/18 06:25:49;;;;;;;0.63;0.63;;;17.70;51.80;;;;;;5070596;28;20199;-85
2023/02/18 06:28:15;;;;;;;0.40;0.40;;;17.70;51.70;;;;;;5070130;28;20236;-86
2023/02/18 06:30:43;;;;;;;0.70;0.70;;;17.70;51.60;;;;;;5086571;28;20165;-86
2023/02/18 06:33:23;;;;;;;0.60;0.50;;;17.70;51.50;;;;;;5087274;28;20164;-86
2023/02/18 06:35:55;;;;;;;0.30;0.30;;;17.70;51.70;;;;;;5104353;28;20181;-87
2023/02/18 06:38:24;;;;;;;0.60;0.60;;;17.70;51.70;;;;;;5088032;28;20169;-87
2023/02/18 06:40:52;;;;;;;0.50;0.50;;;17.70;51.60;;;;;;5088367;28;20196;-86
2023/02/18 06:43:21;;;;;;;1.50;0.80;;;17.70;51.50;;;;;;5105155;28;20604;-86
2023/02/18 06:45:48;;;;;;;0.55;0.50;;;17.70;51.80;;;;;;5105699;28;20157;-87
2023/02/18 06:48:22;;;;;;;0.68;0.60;;;17.70;51.70;;;;;;5087746;28;20172;-86
2023/02/18 06:50:49;;;;;;;0.57;0.57;;;17.70;51.50;;;;;;5089252;28;20172;-86
2023/02/18 06:53:16;;;;;;;0.60;0.50;;;17.70;51.70;;;;;;5087312;28;20177;-86
2023/02/18 06:55:42;;;;;;;0.57;0.57;;;17.70;51.60;;;;;;5086274;28;20187;-87
2023/02/18 06:58:09;;;;;;;0.57;0.57;;;17.60;51.70;;;;;;5104002;28;20171;-86
2023/02/18 07:00:39;;;;;;;0.70;0.50;;;17.80;51.70;;;;;;5089924;28;20263;-86
2023/02/18 07:03:07;;;;;;;0.68;0.52;;;17.70;51.60;;;;;;5087413;28;20164;-87
2023/02/18 07:05:35;;;;;;;0.50;0.50;;;17.70;51.70;;;;;;5104618;28;20218;-87
2023/02/18 07:08:01;;;;;;;0.70;0.60;;;17.70;51.70;;;;;;5104685;28;20164;-87
2023/02/18 07:10:31;;;;;;;0.60;0.50;;;17.70;51.80;;;;;;5088403;28;20169;-87
2023/02/18 07:13:04;;;;;;;0.50;0.50;;;17.70;51.50;;;;;;5102819;28;20153;-87
2023/02/18 07:15:31;;;;;;;0.47;0.47;;;17.70;51.70;;;;;;5102399;28;20157;-87
2023/02/18 07:17:58;;;;;;;0.80;0.60;;;17.70;51.60;;;;;;5085034;28;20179;-87
2023/02/18 07:20:27;;;;;;;0.50;0.50;;;17.70;51.60;;;;;;5095774;28;20173;-86
2023/02/18 07:22:57;;;;;;;0.80;0.63;;;17.80;51.70;;;;;;5096029;28;20161;-87
2023/02/18 07:25:28;;;;;;;0.82;0.60;;;17.70;51.70;;;;;;5096536;28;20198;-87
2023/02/18 07:28:00;;;;;;;0.65;0.60;;;17.70;51.60;;;;;;5095909;28;20188;-87
2023/02/18 07:30:38;;;;;;;0.75;0.50;;;17.70;51.60;;;;;;5095818;28;20196;-86
2023/02/18 07:33:04;;;;;;;0.85;0.70;;;17.70;51.60;;;;;;5095474;28;20184;-87
2023/02/18 07:35:32;;;;;;;0.90;0.70;;;17.80;51.50;;;;;;5080742;28;20181;-90
2023/02/18 07:37:58;;;;;;;0.70;0.70;;;17.80;51.60;;;;;;5063029;28;20180;-89
2023/02/18 07:40:25;;;;;;;0.45;0.45;;;17.80;51.60;;;;;;5080939;28;20606;-87
2023/02/18 07:42:51;;;;;;;0.57;0.57;;;17.70;51.60;;;;;;5082546;28;20153;-87
2023/02/18 07:45:16;;;;;;;0.60;0.60;;;17.80;51.70;;;;;;5085556;28;20219;-86
2023/02/18 07:47:44;;;;;;;0.52;0.52;;;17.80;51.60;;;;;;5095913;28;20157;-86
2023/02/18 07:50:10;;;;;;;0.45;0.40;;;17.80;51.50;;;;;;5078422;28;20712;-86
2023/02/18 07:52:35;;;;;;;0.50;0.50;;;17.80;51.50;;;;;;5095395;28;20260;-86
2023/02/18 07:55:01;;;;;;;0.70;0.70;;;17.80;51.50;;;;;;5095736;28;20194;-86
2023/02/18 07:57:28;;;;;;;1.27;0.65;;;17.80;51.80;;;;;;5078959;28;20180;-87
2023/02/18 07:59:53;;;;;;;3.50;0.52;;;17.80;51.70;;;;;;5094958;28;20212;-86
2023/02/18 08:02:20;;;;;;;0.70;0.60;;;17.80;51.60;;;;;;5078696;28;20191;-88
2023/02/18 08:04:47;;;;;;;0.73;0.50;;;17.80;51.60;;;;;;5080761;28;20202;-86
2023/02/18 08:07:14;;;;;;;0.60;0.40;;;17.90;51.60;;;;;;5079410;28;20169;-86
2023/02/18 08:09:41;;;;;;;0.85;0.60;;;17.90;51.50;;;;;;5080889;28;20698;-86
2023/02/18 08:12:07;;;;;;;1.52;0.70;;;17.90;51.40;;;;;;5082025;28;20177;-86
2023/02/18 08:14:33;;;;;;;1.50;0.60;;;17.90;51.50;;;;;;5082247;28;20176;-86
2023/02/18 08:17:00;;;;;;;0.82;0.47;;;17.90;51.50;;;;;;5083645;28;20161;-86
2023/02/18 08:19:26;;;;;;;0.75;0.50;;;17.90;51.40;;;;;;5081335;28;20188;-86
2023/02/18 08:21:52;;;;;;;0.93;0.50;;;17.90;51.50;;;;;;5080703;28;20157;-86
2023/02/18 08:24:17;;;;;;;1.08;0.52;;;17.90;51.60;;;;;;5097925;28;20254;-86
2023/02/18 08:26:43;;;;;;;0.80;0.60;;;17.80;51.60;;;;;;5097848;28;20156;-86
2023/02/18 08:29:09;;;;;;;2.53;0.50;;;17.90;51.60;;;;;;5098123;28;20192;-85
2023/02/18 08:31:34;;;;;;;2.35;0.60;;;17.90;51.60;;;;;;5100449;28;20165;-86
2023/02/18 08:34:02;;;;;;;1.63;0.60;;;17.90;51.40;;;;;;5080646;28;20310;-86
2023/02/18 08:36:28;;;;;;;1.65;0.68;;;18.00;51.20;;;;;;5100189;28;20514;-85
2023/02/18 08:38:54;;;;;;;0.85;0.70;;;18.00;51.10;;;;;;5081030;28;20631;-84
2023/02/18 08:41:19;;;;;;;2.22;0.60;;;18.10;51.40;;;;;;5080625;28;20175;-86
2023/02/18 08:43:45;;;;;;;3.95;0.85;;;18.10;51.40;;;;;;5080885;28;20532;-86
2023/02/18 08:46:11;;;;;;;3.15;0.60;;;18.10;51.20;;;;;;5082361;28;20179;-85
2023/02/18 08:48:38;;;;;;;6.70;0.75;;;18.10;51.10;;;;;;5082351;28;20216;-85
2023/02/18 08:51:25;;;;;;;4.80;0.63;;;18.20;50.70;;;;;;5083133;28;20161;-84
2023/02/18 08:54:00;;;;;;;6.85;0.70;;;18.20;50.70;;;;;;5059810;28;20206;-84
2023/02/18 08:56:30;;;;;;;9.02;0.90;;;18.20;50.90;;;;;;5028613;28;20187;-86
2023/02/18 08:58:56;;;;;;;7.28;1.20;;;18.20;50.80;;;;;;5044758;28;20181;-86
2023/02/18 09:01:21;;;;;;;9.48;1.10;;;18.30;50.90;;;;;;5043798;28;20248;-84
2023/02/18 09:03:47;;;;;;;16.50;1.25;;;18.30;51.00;;;;;;5040842;28;20239;-85
2023/02/18 09:06:14;;;;;;;10.38;1.33;;;18.30;51.00;;;;;;5058922;28;20173;-87
2023/02/18 09:08:39;;;;;;;14.48;1.45;;;18.40;51.10;;;;;;5028309;28;20184;-86
2023/02/18 09:11:06;;;;;;;8.10;1.05;;;18.40;51.10;;;;;;5043262;28;20169;-85
2023/02/18 09:13:32;;;;;;;8.90;1.65;;;18.50;50.60;;;;;;5043616;28;20265;-87
2023/02/18 09:16:03;;;;;;;9.27;1.73;;;18.40;50.80;;;;;;5027459;28;20201;-85
2023/02/18 09:18:29;;;;;;;12.65;0.90;;;18.50;50.80;;;;;;5044867;28;20181;-84
2023/02/18 09:20:56;;;;;;;6.80;0.90;;;18.50;50.50;;;;;;5045877;28;20189;-85
2023/02/18 09:23:24;;;;;;;9.68;1.42;;;18.50;50.50;;;;;;5028255;28;20633;-86
2023/02/18 09:25:52;;;;;;;8.32;1.05;;;18.50;50.80;;;;;;5080992;28;20263;-85
2023/02/18 09:28:18;;;;;;;4.60;0.63;;;18.40;50.70;;;;;;5081407;28;20182;-86
2023/02/18 09:30:44;;;;;;;5.03;0.88;;;18.50;50.70;;;;;;5100387;28;20176;-86
2023/02/18 09:33:09;;;;;;;7.13;1.05;;;18.50;50.70;;;;;;5066016;28;20172;-86
2023/02/18 09:35:41;;;;;;;6.40;1.02;;;18.50;50.60;;;;;;5086646;28;20172;-86
2023/02/18 09:38:09;;;;;;;6.20;0.82;;;18.50;50.60;;;;;;5069480;28;20180;-85
2023/02/18 09:40:37;;;;;;;6.80;0.75;;;18.50;50.50;;;;;;5086172;28;20207;-85
2023/02/18 09:43:03;;;;;;;6.22;1.00;;;18.50;50.60;;;;;;5084921;28;20149;-85
2023/02/18 09:45:30;;;;;;;7.13;1.00;;;18.60;50.80;;;;;;5084016;28;20199;-85
2023/02/18 09:47:56;;;;;;;9.70;0.82;;;18.60;50.60;;;;;;5101216;28;20189;-86
2023/02/18 09:50:26;;;;;;;8.05;0.75;;;18.50;50.90;;;;;;5100197;28;20177;-87
2023/02/18 09:52:58;;;;;;;8.15;0.77;;;18.50;51.00;;;;;;5099550;28;20161;-85
2023/02/18 09:55:31;;;;;;;7.85;0.90;;;18.50;50.70;;;;;;5102474;28;20172;-85
2023/02/18 09:58:02;;;;;;;11.85;1.65;;;18.60;50.90;;;;;;5084016;28;20181;-85
2023/02/18 10:00:47;;;;;;;4.22;0.70;;;18.60;51.10;;;;;;5084055;28;20662;-86
2023/02/18 10:03:14;;;;;;;14.50;1.63;;;18.60;51.00;;;;;;5084935;28;20172;-84
2023/02/18 10:05:45;;;;;;;14.75;1.23;;;18.60;51.20;;;;;;5097960;28;20172;-87
2023/02/18 10:08:19;;;;;;;17.42;1.55;;;18.60;51.10;;;;;;5096230;28;20251;-87
2023/02/18 10:10:46;;;;;;;19.98;1.60;;;18.60;51.30;;;;;;5079817;28;20203;-86
2023/02/18 10:13:15;;;;;;;11.50;1.10;;;18.60;51.20;;;;;;5078916;28;20172;-86
2023/02/18 10:15:41;;;;;;;13.15;1.20;;;18.60;51.20;;;;;;5079305;28;20232;-87
2023/02/18 10:18:23;;;;;;;10.38;1.00;;;18.60;51.60;;;;;;5078769;28;20164;-86
2023/02/18 10:20:53;;;;;;;8.75;1.00;;;18.60;51.60;;;;;;5096614;28;20262;-86
2023/02/18 10:23:19;;;;;;;11.45;1.20;;;18.50;51.70;;;;;;5080723;28;20176;-87
2023/02/18 10:25:45;;;;;;;9.32;0.98;;;18.60;51.60;;;;;;5098809;28;20739;-86
2023/02/18 10:28:12;;;;;;;15.85;1.42;;;18.60;51.60;;;;;;5101651;28;20191;-87
2023/02/18 10:30:42;;;;;;;11.63;1.20;;;18.60;51.50;;;;;;5099708;28;20164;-87
2023/02/18 10:33:40;;;;;;;8.00;1.33;;;18.60;51.60;;;;;;5075017;28;20181;-86
2023/02/18 10:36:23;;;;;;;8.70;1.42;;;18.60;51.00;;;;;;5073935;28;20173;-86
2023/02/18 10:39:12;;;;;;;8.35;1.00;;;18.60;51.40;;;;;;5058074;28;20776;-86
2023/02/18 10:41:51;;;;;;;3.65;1.00;;;18.60;51.30;;;;;;5057729;28;20166;-86
2023/02/18 10:44:47;;;;;;;12.95;1.15;;;18.60;51.30;;;;;;5058495;28;20181;-86
2023/02/18 10:47:41;;;;;;;8.43;0.88;;;18.60;51.40;;;;;;5075417;28;20528;-86
2023/02/18 10:50:11;;;;;;;6.53;1.02;;;18.50;51.50;;;;;;5056748;28;20181;-86
2023/02/18 10:52:41;;;;;;;7.32;1.13;;;18.60;51.50;;;;;;5057064;28;20192;-86
2023/02/18 10:55:10;;;;;;;4.00;0.50;;;18.60;51.40;;;;;;5027371;28;20190;-86
2023/02/18 10:57:45;;;;;;;3.00;0.73;;;18.60;51.30;;;;;;5069398;28;20162;-86
2023/02/18 11:00:17;;;;;;;11.38;1.13;;;18.60;51.20;;;;;;5052554;28;20229;-86
2023/02/18 11:02:43;;;;;;;4.60;0.90;;;18.60;51.10;;;;;;5069732;28;20158;-87
2023/02/18 11:05:28;;;;;;;4.32;0.93;;;18.60;51.30;;;;;;5091220;28;20223;-86
2023/02/18 11:07:55;;;;;;;7.53;0.60;;;18.60;51.30;;;;;;5056412;28;20200;-87
2023/02/18 11:10:25;;;;;;;7.22;0.90;;;18.60;51.30;;;;;;5088961;28;20185;-86
2023/02/18 11:12:56;;;;;;;6.43;0.68;;;18.60;51.30;;;;;;5089935;28;20181;-87
2023/02/18 11:15:23;;;;;;;6.45;0.85;;;18.60;51.20;;;;;;5090471;28;20180;-86
2023/02/18 11:17:53;;;;;;;5.72;0.70;;;18.60;51.50;;;;;;5078706;28;20625;-87
2023/02/18 11:20:25;;;;;;;2.05;0.47;;;18.60;51.50;;;;;;5094506;28;20201;-86
2023/02/18 11:22:55;;;;;;;5.20;0.60;;;18.70;51.20;;;;;;5079481;28;20205;-87
2023/02/18 11:25:24;;;;;;;4.47;0.40;;;18.60;51.50;;;;;;5094917;28;20268;-87
2023/02/18 11:27:56;;;;;;;5.13;0.80;;;18.70;51.10;;;;;;5078481;28;20177;-87
2023/02/18 11:30:25;;;;;;;3.20;0.55;;;18.70;51.40;;;;;;5094597;28;20173;-87
2023/02/18 11:32:55;;;;;;;2.83;0.75;;;18.60;51.20;;;;;;5094262;28;20571;-88
2023/02/18 11:35:23;;;;;;;6.38;0.98;;;18.60;51.20;;;;;;5075576;28;20176;-88
2023/02/18 11:37:48;;;;;;;26.00;1.85;;;18.70;50.90;;;;;;5094043;28;20193;-88
2023/02/18 11:40:24;;;;;;;23.58;2.17;;;18.70;50.70;;;;;;5098020;28;20184;-88
2023/02/18 11:42:50;;;;;;;31.42;3.03;;;18.70;50.50;;;;;;5097968;28;20165;-88
2023/02/18 11:45:28;;;;;;;24.67;2.40;;;18.70;50.70;;;;;;5081358;28;20172;-88
2023/02/18 11:47:59;;;;;;;23.50;2.47;;;18.70;50.50;;;;;;5099967;28;20172;-87
2023/02/18 11:50:25;;;;;;;30.80;3.15;;;18.70;50.40;;;;;;5081871;28;20603;-87
2023/02/18 11:52:50;;;;;;;19.17;2.30;;;18.70;50.50;;;;;;5081013;28;20259;-87
2023/02/18 11:55:20;;;;;;;21.50;1.95;;;18.70;50.50;;;;;;5101420;28;20264;-87
2023/02/18 11:57:58;;;;;;;11.80;2.13;;;18.70;50.80;;;;;;5084449;28;20535;-87
2023/02/18 12:00:45;;;;;;;13.13;2.05;;;18.70;50.60;;;;;;5099641;28;20223;-87
2023/02/18 12:03:46;;;;;;;17.02;1.67;;;18.70;50.40;;;;;;5084301;28;20630;-87
2023/02/18 12:06:49;;;;;;;12.82;1.60;;;18.70;50.40;;;;;;5102455;28;20175;-87
2023/02/18 12:09:28;;;;;;;8.23;1.70;;;18.80;50.60;;;;;;5100981;28;20164;-87
2023/02/18 12:11:57;;;;;;;14.55;1.90;;;18.70;51.60;;;;;;5102560;28;20160;-87
2023/02/18 12:14:23;;;;;;;15.25;1.80;;;18.70;50.90;;;;;;5085618;28;20192;-87
2023/02/18 12:17:06;;;;;;;10.52;1.13;;;18.70;50.70;;;;;;5084563;28;20157;-87
2023/02/18 12:19:46;;;;;;;14.77;1.65;;;18.80;50.60;;;;;;5103367;28;20299;-87
2023/02/18 12:22:21;;;;;;;12.50;1.30;;;18.60;50.50;;;;;;5085971;28;20520;-86
2023/02/18 12:25:26;;;;;;;6.97;1.05;;;18.70;50.40;;;;;;5088238;28;20157;-87
2023/02/18 12:28:31;;;;;;;16.45;1.42;;;18.70;50.30;;;;;;5022496;28;20549;-87
2023/02/18 12:35:00;;;;;;;9.88;1.20;;;18.70;50.30;;;;;;5060883;28;20191;-87
2023/02/18 12:37:52;;;;;;;12.38;1.35;;;18.70;49.70;;;;;;5041523;28;20182;-87
2023/02/18 12:40:42;;;;;;;15.50;1.20;;;18.70;49.90;;;;;;5025590;28;20215;-87
2023/02/18 12:43:51;;;;;;;9.65;1.55;;;18.70;49.70;;;;;;5002890;28;20176;-87
2023/02/18 12:46:56;;;;;;;20.83;1.90;;;18.70;49.90;;;;;;5001796;28;20176;-86
2023/02/18 12:53:21;;;;;;;11.85;1.67;;;18.70;49.80;;;;;;4971823;28;20176;-87
2023/02/18 12:55:56;;;;;;;10.02;1.38;;;18.70;49.90;;;;;;4951259;28;20248;-86
2023/02/18 12:58:34;;;;;;;8.60;1.30;;;18.70;49.80;;;;;;4968352;28;20758;-87
2023/02/18 13:01:16;;;;;;;18.08;1.88;;;18.80;49.80;;;;;;4962782;28;20308;-88
2023/02/18 13:04:13;;;;;;;12.93;1.50;;;18.70;49.80;;;;;;4957363;28;20212;-86
2023/02/18 13:07:13;;;;;;;13.32;1.75;;;18.70;49.60;;;;;;4970928;28;20247;-85
2023/02/18 13:10:09;;;;;;;11.98;1.00;;;18.70;49.50;;;;;;4956635;28;20548;-87
2023/02/18 13:12:49;;;;;;;12.55;1.92;;;18.80;49.40;;;;;;4947700;29;20188;-87
2023/02/18 13:15:30;;;;;;;8.90;0.95;;;18.80;49.30;;;;;;4949835;29;20192;-86
2023/02/18 13:17:57;;;;;;;7.88;1.25;;;18.80;49.30;;;;;;4966469;28;20207;-88